ADDS METAR Data INFO
IDs: Format: Raw Decoded Include TAF

Data at: 0344 UTC 19 Feb 2018

KCEZ 190253Z AUTO 22009KT 10SM CLR 08/M09 A2967 RMK AO2 SLP034 T00781089 56009
KCEZ 190153Z AUTO 20009KT 10SM FEW095 08/M09 A2968 RMK AO2 SLP044 T00781089
KCEZ 190053Z AUTO 21004KT 10SM SCT100 09/M09 A2969 RMK AO2 SLP043 T00891094
KCEZ 182353Z AUTO 23017KT 10SM CLR 13/M10 A2970 RMK AO2 PK WND 22026/2322 SLP041 T01281100 10144 20100 56026
KCEZ 182253Z AUTO 19016G28KT 10SM SCT080 13/M07 A2973 RMK AO2 PK WND 21028/2250 SLP047 T01331072
KCEZ 182153Z AUTO 20019G24KT 10SM FEW080 14/M06 A2976 RMK AO2 SLP058 T01391061
KCEZ 182053Z AUTO 20014G21KT 10SM SCT075 12/M06 A2979 RMK AO2 SLP074 T01221061 56032
KCEZ 181953Z AUTO 22015G21KT 10SM CLR 12/M08 A2982 RMK AO2 SLP084 T01221078
KCEZ 181853Z AUTO 21011KT 10SM CLR 11/M07 A2987 RMK AO2 SLP101 T01111072
KCEZ 181753Z AUTO 20015KT 10SM CLR 10/M05 A2991 RMK AO2 SLP114 T01001050 10100 21083 58015
KCEZ 181653Z AUTO 22012KT 10SM CLR 09/M06 A2993 RMK AO2 SLP121 T00891056
KCEZ 181553Z AUTO 07003KT 10SM CLR 03/M04 A2994 RMK AO2 SLP140 T00281044
KCEZ 181453Z AUTO 00000KT 10SM CLR M05/M08 A2996 RMK AO2 SLP156 T10501083 58004
KCEZ 181353Z AUTO 09005KT 10SM CLR M07/M09 A2996 RMK AO2 SLP161 T10671094
KCEZ 181253Z AUTO 09005KT 10SM CLR M07/M09 A2997 RMK AO2 SLP146 T10721094
KCEZ 181153Z AUTO 00000KT 10SM CLR M08/M11 A2997 RMK AO2 SLP144 T10781106 11044 21083 58017
KCEZ 181053Z AUTO 07004KT 10SM CLR M06/M09 A2999 RMK AO2 SLP144 T10611094
KCEZ 180953Z AUTO 00000KT 10SM CLR M07/M10 A3002 RMK AO2 SLP155 T10721100
KCEZ 180853Z AUTO 06003KT 10SM CLR M07/M11 A3003 RMK AO2 SLP163 T10721106 56017
KCEZ 180753Z AUTO 00000KT 10SM CLR M07/M10 A3004 RMK AO2 SLP167 T10671100
KCEZ 180653Z AUTO 03004KT 10SM CLR M06/M09 A3007 RMK AO2 SLP176 T10561094 401111106
KCEZ 180553Z AUTO 00000KT 10SM CLR M05/M09 A3009 RMK AO2 SLP189 T10501094 10100 21050 58015
KCEZ 180453Z AUTO 07004KT 10SM CLR M03/M09 A3012 RMK AO2 SLP203 T10331089
KCEZ 180353Z AUTO 08006KT 10SM CLR M03/M09 A3013 RMK AO2 SLP214 T10281089
KCEZ 180253Z AUTO 06007KT 10SM CLR M01/M09 A3014 RMK AO2 SLP228 T10111089 50001
KCEZ 180153Z AUTO 07003KT 9SM CLR 00/M11 A3014 RMK AO2 SLP233 T00001106
KCEZ 180053Z AUTO 24003KT 10SM CLR 08/M11 A3014 RMK AO2 SLP208 T00781111
KCEZ 172353Z AUTO 21011KT 10SM CLR 10/M11 A3014 RMK AO2 SLP204 T01001106 10111 20056 56008
KCEZ 172253Z AUTO 22010KT 10SM CLR 11/M10 A3014 RMK AO2 SLP202 T01061100
KCEZ 172153Z AUTO 20011KT 10SM CLR 11/M08 A3016 RMK AO2 SLP205 T01111083
KCEZ 172053Z AUTO 21010KT 10SM CLR 11/M09 A3017 RMK AO2 SLP211 T01061089 58024
KCEZ 171953Z AUTO VRB03KT 10SM CLR 10/M10 A3020 RMK AO2 SLP221 T01001100
KCEZ 171853Z AUTO 26006KT 10SM CLR 08/M08 A3023 RMK AO2 SLP236 T00831083
KCEZ 171753Z AUTO 19003KT 10SM CLR 06/M09 A3025 RMK AO2 SLP248 T00561089 10056 21106 58002
KCEZ 171653Z AUTO 00000KT 10SM CLR 02/M07 A3026 RMK AO2 SLP255 T00221067
KCEZ 171553Z AUTO 00000KT 10SM CLR M02/M07 A3027 RMK AO2 SLP268 T10221067